sensor_id;sensor_type;location;lat;lon;timestamp;temperature;humidity
20372;DHT22;42924;37.564;-122.048;2022-08-25T00:02:03;29.20;99.90
20372;DHT22;42924;37.564;-122.048;2022-08-25T00:04:39;29.20;99.90
20372;DHT22;42924;37.564;-122.048;2022-08-25T00:07:11;29.30;99.90
20372;DHT22;42924;37.564;-122.048;2022-08-25T00:09:46;29.50;99.90
20372;DHT22;42924;37.564;-122.048;2022-08-25T00:12:17;29.50;99.90
20372;DHT22;42924;37.564;-122.048;2022-08-25T00:14:48;29.50;99.90
20372;DHT22;42924;37.564;-122.048;2022-08-25T00:17:21;29.50;99.90
20372;DHT22;42924;37.564;-122.048;2022-08-25T00:19:55;29.40;99.90
20372;DHT22;42924;37.564;-122.048;2022-08-25T00:22:26;29.30;99.90
20372;DHT22;42924;37.564;-122.048;2022-08-25T00:25:06;29.30;99.90
20372;DHT22;42924;37.564;-122.048;2022-08-25T00:27:39;29.30;99.90
20372;DHT22;42924;37.564;-122.048;2022-08-25T00:30:12;29.20;99.90
20372;DHT22;42924;37.564;-122.048;2022-08-25T00:32:44;29.20;99.90
20372;DHT22;42924;37.564;-122.048;2022-08-25T00:35:25;29.20;99.90
20372;DHT22;42924;37.564;-122.048;2022-08-25T00:37:57;29.10;99.90
20372;DHT22;42924;37.564;-122.048;2022-08-25T00:40:29;29.10;99.90
20372;DHT22;42924;37.564;-122.048;2022-08-25T00:43:02;29.10;99.90
20372;DHT22;42924;37.564;-122.048;2022-08-25T00:45:35;29.10;99.90
20372;DHT22;42924;37.564;-122.048;2022-08-25T00:48:07;29.00;99.90
20372;DHT22;42924;37.564;-122.048;2022-08-25T00:50:38;29.00;99.90
20372;DHT22;42924;37.564;-122.048;2022-08-25T00:53:11;29.00;99.90
20372;DHT22;42924;37.564;-122.048;2022-08-25T00:55:41;28.90;99.90
20372;DHT22;42924;37.564;-122.048;2022-08-25T00:58:17;28.90;99.90
20372;DHT22;42924;37.564;-122.048;2022-08-25T01:00:51;28.90;99.90
20372;DHT22;42924;37.564;-122.048;2022-08-25T01:03:27;28.80;99.90
20372;DHT22;42924;37.564;-122.048;2022-08-25T01:06:03;28.80;99.90
20372;DHT22;42924;37.564;-122.048;2022-08-25T01:08:37;28.80;99.90
20372;DHT22;42924;37.564;-122.048;2022-08-25T01:11:10;28.70;99.90
20372;DHT22;42924;37.564;-122.048;2022-08-25T01:13:53;28.70;99.90
20372;DHT22;42924;37.564;-122.048;2022-08-25T01:16:24;28.60;99.90
20372;DHT22;42924;37.564;-122.048;2022-08-25T01:18:56;28.60;99.90
20372;DHT22;42924;37.564;-122.048;2022-08-25T01:21:30;28.60;99.90
20372;DHT22;42924;37.564;-122.048;2022-08-25T01:24:05;28.50;99.90
20372;DHT22;42924;37.564;-122.048;2022-08-25T01:26:37;28.40;99.90
20372;DHT22;42924;37.564;-122.048;2022-08-25T01:29:09;28.40;99.90
20372;DHT22;42924;37.564;-122.048;2022-08-25T01:31:53;28.40;99.90
20372;DHT22;42924;37.564;-122.048;2022-08-25T01:34:30;28.40;99.90
20372;DHT22;42924;37.564;-122.048;2022-08-25T01:37:02;28.40;99.90
20372;DHT22;42924;37.564;-122.048;2022-08-25T01:39:34;28.40;99.90
20372;DHT22;42924;37.564;-122.048;2022-08-25T01:44:47;28.30;99.90
20372;DHT22;42924;37.564;-122.048;2022-08-25T01:47:18;28.20;99.90
20372;DHT22;42924;37.564;-122.048;2022-08-25T01:49:55;28.20;99.90
20372;DHT22;42924;37.564;-122.048;2022-08-25T01:52:44;28.20;99.90
20372;DHT22;42924;37.564;-122.048;2022-08-25T01:55:19;28.20;99.90
20372;DHT22;42924;37.564;-122.048;2022-08-25T01:57:51;28.10;99.90
20372;DHT22;42924;37.564;-122.048;2022-08-25T02:00:23;28.00;99.90
20372;DHT22;42924;37.564;-122.048;2022-08-25T02:02:53;27.90;99.90
20372;DHT22;42924;37.564;-122.048;2022-08-25T02:05:32;27.80;99.90
20372;DHT22;42924;37.564;-122.048;2022-08-25T02:08:05;27.80;99.90
20372;DHT22;42924;37.564;-122.048;2022-08-25T02:10:37;27.70;99.90
20372;DHT22;42924;37.564;-122.048;2022-08-25T02:13:09;27.60;99.90
20372;DHT22;42924;37.564;-122.048;2022-08-25T02:15:43;27.70;99.90
20372;DHT22;42924;37.564;-122.048;2022-08-25T02:18:17;27.70;99.90
20372;DHT22;42924;37.564;-122.048;2022-08-25T02:20:48;27.70;99.90
20372;DHT22;42924;37.564;-122.048;2022-08-25T02:23:19;27.70;99.90
20372;DHT22;42924;37.564;-122.048;2022-08-25T02:25:50;27.60;99.90
20372;DHT22;42924;37.564;-122.048;2022-08-25T02:28:22;27.60;99.90
20372;DHT22;42924;37.564;-122.048;2022-08-25T02:30:53;27.50;99.90
20372;DHT22;42924;37.564;-122.048;2022-08-25T02:33:30;27.50;99.90
20372;DHT22;42924;37.564;-122.048;2022-08-25T02:36:03;27.50;99.90
20372;DHT22;42924;37.564;-122.048;2022-08-25T02:38:34;27.50;99.90
20372;DHT22;42924;37.564;-122.048;2022-08-25T02:41:25;27.50;99.90
20372;DHT22;42924;37.564;-122.048;2022-08-25T02:44:04;27.50;99.90
20372;DHT22;42924;37.564;-122.048;2022-08-25T02:46:37;27.50;99.90
20372;DHT22;42924;37.564;-122.048;2022-08-25T02:49:10;27.50;99.90
20372;DHT22;42924;37.564;-122.048;2022-08-25T02:51:41;27.40;99.90
20372;DHT22;42924;37.564;-122.048;2022-08-25T02:54:11;27.40;99.90
20372;DHT22;42924;37.564;-122.048;2022-08-25T02:56:48;27.40;99.90
20372;DHT22;42924;37.564;-122.048;2022-08-25T02:59:19;27.40;99.90
20372;DHT22;42924;37.564;-122.048;2022-08-25T03:01:48;27.30;99.90
20372;DHT22;42924;37.564;-122.048;2022-08-25T03:04:19;27.30;99.90
20372;DHT22;42924;37.564;-122.048;2022-08-25T03:06:52;27.30;99.90
20372;DHT22;42924;37.564;-122.048;2022-08-25T03:09:23;27.30;99.90
20372;DHT22;42924;37.564;-122.048;2022-08-25T03:11:53;27.30;99.90
20372;DHT22;42924;37.564;-122.048;2022-08-25T03:14:30;27.30;99.90
20372;DHT22;42924;37.564;-122.048;2022-08-25T03:17:01;27.30;99.90
20372;DHT22;42924;37.564;-122.048;2022-08-25T03:19:36;27.20;99.90
20372;DHT22;42924;37.564;-122.048;2022-08-25T03:22:08;27.20;99.90
20372;DHT22;42924;37.564;-122.048;2022-08-25T03:24:40;27.20;99.90
20372;DHT22;42924;37.564;-122.048;2022-08-25T03:27:12;27.20;99.90
20372;DHT22;42924;37.564;-122.048;2022-08-25T03:29:43;27.20;99.90
20372;DHT22;42924;37.564;-122.048;2022-08-25T03:32:16;27.10;99.90
20372;DHT22;42924;37.564;-122.048;2022-08-25T03:34:50;27.10;99.90
20372;DHT22;42924;37.564;-122.048;2022-08-25T03:37:21;27.10;99.90
20372;DHT22;42924;37.564;-122.048;2022-08-25T03:39:52;27.00;99.90
20372;DHT22;42924;37.564;-122.048;2022-08-25T03:42:23;27.10;99.90
20372;DHT22;42924;37.564;-122.048;2022-08-25T03:44:56;27.00;99.90
20372;DHT22;42924;37.564;-122.048;2022-08-25T03:47:28;27.00;99.90
20372;DHT22;42924;37.564;-122.048;2022-08-25T03:50:01;27.00;99.90
20372;DHT22;42924;37.564;-122.048;2022-08-25T03:52:34;27.00;99.90
20372;DHT22;42924;37.564;-122.048;2022-08-25T03:55:11;27.00;99.90
20372;DHT22;42924;37.564;-122.048;2022-08-25T03:57:44;26.90;99.90
20372;DHT22;42924;37.564;-122.048;2022-08-25T04:00:18;27.00;99.90
20372;DHT22;42924;37.564;-122.048;2022-08-25T04:02:52;26.90;99.90
20372;DHT22;42924;37.564;-122.048;2022-08-25T04:05:23;26.90;99.90
20372;DHT22;42924;37.564;-122.048;2022-08-25T04:07:55;26.90;99.90
20372;DHT22;42924;37.564;-122.048;2022-08-25T04:10:31;26.90;99.90
20372;DHT22;42924;37.564;-122.048;2022-08-25T04:13:02;26.90;99.90
20372;DHT22;42924;37.564;-122.048;2022-08-25T04:15:35;26.90;99.90
20372;DHT22;42924;37.564;-122.048;2022-08-25T04:18:07;26.80;99.90
20372;DHT22;42924;37.564;-122.048;2022-08-25T04:20:42;26.80;99.90
20372;DHT22;42924;37.564;-122.048;2022-08-25T04:23:15;26.80;99.90
20372;DHT22;42924;37.564;-122.048;2022-08-25T04:25:49;26.80;99.90
20372;DHT22;42924;37.564;-122.048;2022-08-25T04:28:31;26.80;99.90
20372;DHT22;42924;37.564;-122.048;2022-08-25T04:31:05;26.80;99.90
20372;DHT22;42924;37.564;-122.048;2022-08-25T04:33:38;26.70;99.90
20372;DHT22;42924;37.564;-122.048;2022-08-25T04:36:10;26.70;99.90
20372;DHT22;42924;37.564;-122.048;2022-08-25T04:38:43;26.70;99.90
20372;DHT22;42924;37.564;-122.048;2022-08-25T04:41:18;26.70;99.90
20372;DHT22;42924;37.564;-122.048;2022-08-25T04:43:51;26.60;99.90
20372;DHT22;42924;37.564;-122.048;2022-08-25T04:46:29;26.50;99.90
20372;DHT22;42924;37.564;-122.048;2022-08-25T04:49:02;26.60;99.90
20372;DHT22;42924;37.564;-122.048;2022-08-25T04:51:37;26.50;99.90
20372;DHT22;42924;37.564;-122.048;2022-08-25T04:54:11;26.60;99.90
20372;DHT22;42924;37.564;-122.048;2022-08-25T04:56:53;26.50;99.90
20372;DHT22;42924;37.564;-122.048;2022-08-25T04:59:26;26.60;99.90
20372;DHT22;42924;37.564;-122.048;2022-08-25T05:02:02;26.50;99.90
20372;DHT22;42924;37.564;-122.048;2022-08-25T05:04:35;26.60;99.90
20372;DHT22;42924;37.564;-122.048;2022-08-25T05:07:07;26.50;99.90
20372;DHT22;42924;37.564;-122.048;2022-08-25T05:09:38;26.50;99.90
20372;DHT22;42924;37.564;-122.048;2022-08-25T05:12:09;26.50;99.90
20372;DHT22;42924;37.564;-122.048;2022-08-25T05:14:43;26.50;99.90
20372;DHT22;42924;37.564;-122.048;2022-08-25T05:17:14;26.50;99.90
20372;DHT22;42924;37.564;-122.048;2022-08-25T05:19:47;26.40;99.90
20372;DHT22;42924;37.564;-122.048;2022-08-25T05:22:17;26.40;99.90
20372;DHT22;42924;37.564;-122.048;2022-08-25T05:24:48;26.40;99.90
20372;DHT22;42924;37.564;-122.048;2022-08-25T05:27:19;26.40;99.90
20372;DHT22;42924;37.564;-122.048;2022-08-25T05:29:51;26.40;99.90
20372;DHT22;42924;37.564;-122.048;2022-08-25T05:32:22;26.40;99.90
20372;DHT22;42924;37.564;-122.048;2022-08-25T05:34:53;26.40;99.90
20372;DHT22;42924;37.564;-122.048;2022-08-25T05:37:28;26.40;99.90
20372;DHT22;42924;37.564;-122.048;2022-08-25T05:40:02;26.40;99.90
20372;DHT22;42924;37.564;-122.048;2022-08-25T05:42:35;26.40;99.90
20372;DHT22;42924;37.564;-122.048;2022-08-25T05:45:07;26.30;99.90
20372;DHT22;42924;37.564;-122.048;2022-08-25T05:47:49;26.30;99.90
20372;DHT22;42924;37.564;-122.048;2022-08-25T05:50:19;26.30;99.90
20372;DHT22;42924;37.564;-122.048;2022-08-25T05:52:51;26.30;99.90
20372;DHT22;42924;37.564;-122.048;2022-08-25T05:55:23;26.30;99.90
20372;DHT22;42924;37.564;-122.048;2022-08-25T05:57:54;26.20;99.90
20372;DHT22;42924;37.564;-122.048;2022-08-25T06:00:27;26.20;99.90
20372;DHT22;42924;37.564;-122.048;2022-08-25T06:02:57;26.20;99.90
20372;DHT22;42924;37.564;-122.048;2022-08-25T06:05:26;26.20;99.90
20372;DHT22;42924;37.564;-122.048;2022-08-25T06:07:59;26.20;99.90
20372;DHT22;42924;37.564;-122.048;2022-08-25T06:10:34;26.10;99.90
20372;DHT22;42924;37.564;-122.048;2022-08-25T06:13:04;26.10;99.90
20372;DHT22;42924;37.564;-122.048;2022-08-25T06:15:39;26.10;99.90
20372;DHT22;42924;37.564;-122.048;2022-08-25T06:18:09;26.00;99.90
20372;DHT22;42924;37.564;-122.048;2022-08-25T06:20:40;26.00;99.90
20372;DHT22;42924;37.564;-122.048;2022-08-25T06:23:13;26.10;99.90
20372;DHT22;42924;37.564;-122.048;2022-08-25T06:25:54;26.10;99.90
20372;DHT22;42924;37.564;-122.048;2022-08-25T06:28:26;25.90;99.90
20372;DHT22;42924;37.564;-122.048;2022-08-25T06:31:00;25.80;99.90
20372;DHT22;42924;37.564;-122.048;2022-08-25T06:33:33;25.80;99.90
20372;DHT22;42924;37.564;-122.048;2022-08-25T06:36:03;25.80;99.90
20372;DHT22;42924;37.564;-122.048;2022-08-25T06:38:37;25.90;99.90
20372;DHT22;42924;37.564;-122.048;2022-08-25T06:41:10;25.80;99.90
20372;DHT22;42924;37.564;-122.048;2022-08-25T06:43:42;25.70;99.90
20372;DHT22;42924;37.564;-122.048;2022-08-25T06:46:23;25.80;99.90
20372;DHT22;42924;37.564;-122.048;2022-08-25T06:49:04;25.80;99.90
20372;DHT22;42924;37.564;-122.048;2022-08-25T06:51:36;25.70;99.90
20372;DHT22;42924;37.564;-122.048;2022-08-25T06:54:11;25.60;99.90
20372;DHT22;42924;37.564;-122.048;2022-08-25T06:56:42;25.60;99.90
20372;DHT22;42924;37.564;-122.048;2022-08-25T06:59:17;25.60;99.90
20372;DHT22;42924;37.564;-122.048;2022-08-25T07:01:48;25.60;99.90
20372;DHT22;42924;37.564;-122.048;2022-08-25T07:04:21;25.60;99.90
20372;DHT22;42924;37.564;-122.048;2022-08-25T07:06:53;25.60;99.90
20372;DHT22;42924;37.564;-122.048;2022-08-25T07:09:23;25.60;99.90
20372;DHT22;42924;37.564;-122.048;2022-08-25T07:11:58;25.60;99.90
20372;DHT22;42924;37.564;-122.048;2022-08-25T07:14:30;25.50;99.90
20372;DHT22;42924;37.564;-122.048;2022-08-25T07:17:03;25.50;99.90
20372;DHT22;42924;37.564;-122.048;2022-08-25T07:19:39;25.50;99.90
20372;DHT22;42924;37.564;-122.048;2022-08-25T07:22:13;25.40;99.90
20372;DHT22;42924;37.564;-122.048;2022-08-25T07:24:44;25.30;99.90
20372;DHT22;42924;37.564;-122.048;2022-08-25T07:27:15;25.30;99.90
20372;DHT22;42924;37.564;-122.048;2022-08-25T07:29:46;25.30;99.90
20372;DHT22;42924;37.564;-122.048;2022-08-25T07:32:18;25.30;99.90
20372;DHT22;42924;37.564;-122.048;2022-08-25T07:34:49;25.20;99.90
20372;DHT22;42924;37.564;-122.048;2022-08-25T07:37:42;25.20;99.90
20372;DHT22;42924;37.564;-122.048;2022-08-25T07:40:23;25.20;99.90
20372;DHT22;42924;37.564;-122.048;2022-08-25T07:42:56;25.10;99.90
20372;DHT22;42924;37.564;-122.048;2022-08-25T07:45:30;25.10;99.90
20372;DHT22;42924;37.564;-122.048;2022-08-25T07:48:08;25.10;99.90
20372;DHT22;42924;37.564;-122.048;2022-08-25T07:50:44;25.00;99.90
20372;DHT22;42924;37.564;-122.048;2022-08-25T07:53:18;25.00;99.90
20372;DHT22;42924;37.564;-122.048;2022-08-25T07:55:49;25.10;99.90
20372;DHT22;42924;37.564;-122.048;2022-08-25T07:58:21;25.10;99.90
20372;DHT22;42924;37.564;-122.048;2022-08-25T08:00:54;25.00;99.90
20372;DHT22;42924;37.564;-122.048;2022-08-25T08:03:26;24.90;99.90
20372;DHT22;42924;37.564;-122.048;2022-08-25T08:06:20;24.80;99.90
20372;DHT22;42924;37.564;-122.048;2022-08-25T08:08:53;24.80;99.90
20372;DHT22;42924;37.564;-122.048;2022-08-25T08:11:31;24.80;99.90
20372;DHT22;42924;37.564;-122.048;2022-08-25T08:14:04;24.80;99.90
20372;DHT22;42924;37.564;-122.048;2022-08-25T08:16:33;24.80;99.90
20372;DHT22;42924;37.564;-122.048;2022-08-25T08:19:08;24.70;99.90
20372;DHT22;42924;37.564;-122.048;2022-08-25T08:21:38;24.80;99.90
20372;DHT22;42924;37.564;-122.048;2022-08-25T08:24:09;24.80;99.90
20372;DHT22;42924;37.564;-122.048;2022-08-25T08:27:01;24.70;99.90
20372;DHT22;42924;37.564;-122.048;2022-08-25T08:29:33;24.70;99.90
20372;DHT22;42924;37.564;-122.048;2022-08-25T08:32:07;24.80;99.90
20372;DHT22;42924;37.564;-122.048;2022-08-25T08:34:37;24.70;99.90
20372;DHT22;42924;37.564;-122.048;2022-08-25T08:37:12;24.60;99.90
20372;DHT22;42924;37.564;-122.048;2022-08-25T08:39:53;24.70;99.90
20372;DHT22;42924;37.564;-122.048;2022-08-25T08:46:05;24.50;99.90
20372;DHT22;42924;37.564;-122.048;2022-08-25T08:48:59;24.50;99.90
20372;DHT22;42924;37.564;-122.048;2022-08-25T08:51:34;24.50;99.90
20372;DHT22;42924;37.564;-122.048;2022-08-25T08:54:19;24.50;99.90
20372;DHT22;42924;37.564;-122.048;2022-08-25T08:57:21;24.50;99.90
20372;DHT22;42924;37.564;-122.048;2022-08-25T08:59:59;24.50;99.90
20372;DHT22;42924;37.564;-122.048;2022-08-25T09:02:41;24.50;99.90
20372;DHT22;42924;37.564;-122.048;2022-08-25T09:05:23;24.50;99.90
20372;DHT22;42924;37.564;-122.048;2022-08-25T09:07:58;24.50;99.90
20372;DHT22;42924;37.564;-122.048;2022-08-25T09:11:20;24.50;99.90
20372;DHT22;42924;37.564;-122.048;2022-08-25T09:16:29;24.40;99.90
20372;DHT22;42924;37.564;-122.048;2022-08-25T09:27:46;24.10;99.90
20372;DHT22;42924;37.564;-122.048;2022-08-25T09:30:25;24.10;99.90
20372;DHT22;42924;37.564;-122.048;2022-08-25T09:32:57;24.10;99.90
20372;DHT22;42924;37.564;-122.048;2022-08-25T09:35:35;24.10;99.90
20372;DHT22;42924;37.564;-122.048;2022-08-25T09:38:12;24.10;99.90
20372;DHT22;42924;37.564;-122.048;2022-08-25T09:40:46;24.10;99.90
20372;DHT22;42924;37.564;-122.048;2022-08-25T09:43:37;24.10;99.90
20372;DHT22;42924;37.564;-122.048;2022-08-25T09:48:54;24.10;99.90
20372;DHT22;42924;37.564;-122.048;2022-08-25T09:51:31;24.00;99.90
20372;DHT22;42924;37.564;-122.048;2022-08-25T09:56:56;24.00;99.90
20372;DHT22;42924;37.564;-122.048;2022-08-25T09:59:34;24.00;99.90
20372;DHT22;42924;37.564;-122.048;2022-08-25T10:02:27;24.00;99.90
20372;DHT22;42924;37.564;-122.048;2022-08-25T10:05:25;24.00;99.90
20372;DHT22;42924;37.564;-122.048;2022-08-25T10:08:01;24.00;99.90
20372;DHT22;42924;37.564;-122.048;2022-08-25T10:10:55;23.90;99.90
20372;DHT22;42924;37.564;-122.048;2022-08-25T10:13:44;23.90;99.90
20372;DHT22;42924;37.564;-122.048;2022-08-25T10:16:25;23.90;99.90
20372;DHT22;42924;37.564;-122.048;2022-08-25T10:19:40;23.80;99.90
20372;DHT22;42924;37.564;-122.048;2022-08-25T10:24:40;23.70;99.90
20372;DHT22;42924;37.564;-122.048;2022-08-25T10:27:18;23.90;99.90
20372;DHT22;42924;37.564;-122.048;2022-08-25T10:30:12;23.90;99.90
20372;DHT22;42924;37.564;-122.048;2022-08-25T10:32:58;23.90;99.90
20372;DHT22;42924;37.564;-122.048;2022-08-25T10:35:45;23.80;99.90
20372;DHT22;42924;37.564;-122.048;2022-08-25T10:38:46;23.70;99.90
20372;DHT22;42924;37.564;-122.048;2022-08-25T10:41:27;23.70;99.90
20372;DHT22;42924;37.564;-122.048;2022-08-25T10:44:28;23.80;99.90
20372;DHT22;42924;37.564;-122.048;2022-08-25T10:47:50;23.70;99.90
20372;DHT22;42924;37.564;-122.048;2022-08-25T10:50:38;23.70;99.90
20372;DHT22;42924;37.564;-122.048;2022-08-25T10:53:30;23.60;99.90
20372;DHT22;42924;37.564;-122.048;2022-08-25T10:56:30;23.60;99.90
20372;DHT22;42924;37.564;-122.048;2022-08-25T11:02:45;23.70;99.90
20372;DHT22;42924;37.564;-122.048;2022-08-25T11:14:02;23.50;99.90
20372;DHT22;42924;37.564;-122.048;2022-08-25T11:16:39;23.50;99.90
20372;DHT22;42924;37.564;-122.048;2022-08-25T11:19:38;23.50;99.90
20372;DHT22;42924;37.564;-122.048;2022-08-25T11:25:10;23.50;99.90
20372;DHT22;42924;37.564;-122.048;2022-08-25T11:28:11;23.50;99.90
20372;DHT22;42924;37.564;-122.048;2022-08-25T11:30:44;23.70;99.90
20372;DHT22;42924;37.564;-122.048;2022-08-25T11:33:16;23.70;99.90
20372;DHT22;42924;37.564;-122.048;2022-08-25T11:35:56;23.70;99.90
20372;DHT22;42924;37.564;-122.048;2022-08-25T11:48:14;23.80;99.90
20372;DHT22;42924;37.564;-122.048;2022-08-25T11:51:06;23.70;99.90
20372;DHT22;42924;37.564;-122.048;2022-08-25T11:53:39;23.50;99.90
20372;DHT22;42924;37.564;-122.048;2022-08-25T11:56:32;23.50;99.90
20372;DHT22;42924;37.564;-122.048;2022-08-25T11:59:07;23.50;99.90
20372;DHT22;42924;37.564;-122.048;2022-08-25T12:07:20;23.70;99.90
20372;DHT22;42924;37.564;-122.048;2022-08-25T12:23:30;23.40;99.90
20372;DHT22;42924;37.564;-122.048;2022-08-25T12:37:29;23.50;99.90
20372;DHT22;42924;37.564;-122.048;2022-08-25T12:40:04;23.70;99.90
20372;DHT22;42924;37.564;-122.048;2022-08-25T12:42:39;23.80;99.90
20372;DHT22;42924;37.564;-122.048;2022-08-25T12:47:54;23.80;99.90
20372;DHT22;42924;37.564;-122.048;2022-08-25T12:50:48;23.80;99.90
20372;DHT22;42924;37.564;-122.048;2022-08-25T12:56:46;23.90;99.90
20372;DHT22;42924;37.564;-122.048;2022-08-25T12:59:35;24.00;99.90
20372;DHT22;42924;37.564;-122.048;2022-08-25T13:05:13;24.10;99.90
20372;DHT22;42924;37.564;-122.048;2022-08-25T13:16:32;24.40;99.90
20372;DHT22;42924;37.564;-122.048;2022-08-25T13:19:06;24.50;99.90
20372;DHT22;42924;37.564;-122.048;2022-08-25T13:21:41;24.60;99.90
20372;DHT22;42924;37.564;-122.048;2022-08-25T13:24:31;24.60;99.90
20372;DHT22;42924;37.564;-122.048;2022-08-25T13:27:21;24.60;99.90
20372;DHT22;42924;37.564;-122.048;2022-08-25T13:29:55;24.70;99.90
20372;DHT22;42924;37.564;-122.048;2022-08-25T13:32:34;24.70;99.90
20372;DHT22;42924;37.564;-122.048;2022-08-25T13:35:23;24.70;99.90
20372;DHT22;42924;37.564;-122.048;2022-08-25T13:38:16;24.80;99.90
20372;DHT22;42924;37.564;-122.048;2022-08-25T13:40:47;24.90;99.90
20372;DHT22;42924;37.564;-122.048;2022-08-25T13:43:17;24.90;99.90
20372;DHT22;42924;37.564;-122.048;2022-08-25T13:45:57;24.90;99.90
20372;DHT22;42924;37.564;-122.048;2022-08-25T13:48:37;24.90;99.90
20372;DHT22;42924;37.564;-122.048;2022-08-25T13:51:27;24.90;99.90
20372;DHT22;42924;37.564;-122.048;2022-08-25T13:54:02;24.90;99.90
20372;DHT22;42924;37.564;-122.048;2022-08-25T13:56:40;24.90;99.90
20372;DHT22;42924;37.564;-122.048;2022-08-25T13:59:21;25.00;99.90
20372;DHT22;42924;37.564;-122.048;2022-08-25T14:01:53;25.00;99.90
20372;DHT22;42924;37.564;-122.048;2022-08-25T14:04:31;25.00;99.90
20372;DHT22;42924;37.564;-122.048;2022-08-25T14:10:01;25.10;99.90
20372;DHT22;42924;37.564;-122.048;2022-08-25T14:12:35;25.20;99.90
20372;DHT22;42924;37.564;-122.048;2022-08-25T14:18:02;25.30;99.90
20372;DHT22;42924;37.564;-122.048;2022-08-25T14:20:35;25.30;99.90
20372;DHT22;42924;37.564;-122.048;2022-08-25T14:23:23;25.40;99.90
20372;DHT22;42924;37.564;-122.048;2022-08-25T14:25:57;25.40;99.90
20372;DHT22;42924;37.564;-122.048;2022-08-25T14:28:28;25.50;99.90
20372;DHT22;42924;37.564;-122.048;2022-08-25T14:31:08;25.40;99.90
20372;DHT22;42924;37.564;-122.048;2022-08-25T14:33:47;25.50;99.90
20372;DHT22;42924;37.564;-122.048;2022-08-25T14:36:20;25.50;99.90
20372;DHT22;42924;37.564;-122.048;2022-08-25T14:38:54;25.50;99.90
20372;DHT22;42924;37.564;-122.048;2022-08-25T14:41:25;25.60;99.90
20372;DHT22;42924;37.564;-122.048;2022-08-25T14:43:57;25.60;99.90
20372;DHT22;42924;37.564;-122.048;2022-08-25T14:46:35;25.60;99.90
20372;DHT22;42924;37.564;-122.048;2022-08-25T14:49:11;25.70;99.90
20372;DHT22;42924;37.564;-122.048;2022-08-25T14:52:00;25.80;99.90
20372;DHT22;42924;37.564;-122.048;2022-08-25T14:54:32;25.80;99.90
20372;DHT22;42924;37.564;-122.048;2022-08-25T14:57:07;25.80;99.90
20372;DHT22;42924;37.564;-122.048;2022-08-25T14:59:37;25.80;99.90
20372;DHT22;42924;37.564;-122.048;2022-08-25T15:02:13;25.90;99.90
20372;DHT22;42924;37.564;-122.048;2022-08-25T15:04:51;26.00;99.90
20372;DHT22;42924;37.564;-122.048;2022-08-25T15:07:25;26.00;99.90
20372;DHT22;42924;37.564;-122.048;2022-08-25T15:10:21;26.10;99.90
20372;DHT22;42924;37.564;-122.048;2022-08-25T15:12:53;26.20;99.90
20372;DHT22;42924;37.564;-122.048;2022-08-25T15:15:25;26.20;99.90
20372;DHT22;42924;37.564;-122.048;2022-08-25T15:17:59;26.20;99.90
20372;DHT22;42924;37.564;-122.048;2022-08-25T15:20:31;26.30;99.90
20372;DHT22;42924;37.564;-122.048;2022-08-25T15:23:04;26.40;99.90
20372;DHT22;42924;37.564;-122.048;2022-08-25T15:25:42;26.40;99.90
20372;DHT22;42924;37.564;-122.048;2022-08-25T15:28:18;26.40;99.90
20372;DHT22;42924;37.564;-122.048;2022-08-25T15:30:50;26.50;99.90
20372;DHT22;42924;37.564;-122.048;2022-08-25T15:33:28;26.50;99.90
20372;DHT22;42924;37.564;-122.048;2022-08-25T15:35:58;26.50;99.90
20372;DHT22;42924;37.564;-122.048;2022-08-25T15:38:29;26.60;99.90
20372;DHT22;42924;37.564;-122.048;2022-08-25T15:41:04;26.60;99.90
20372;DHT22;42924;37.564;-122.048;2022-08-25T15:43:38;26.70;99.90
20372;DHT22;42924;37.564;-122.048;2022-08-25T15:46:19;26.80;99.90
20372;DHT22;42924;37.564;-122.048;2022-08-25T15:48:57;26.80;99.90
20372;DHT22;42924;37.564;-122.048;2022-08-25T15:51:34;26.70;99.90
20372;DHT22;42924;37.564;-122.048;2022-08-25T15:54:07;26.80;99.90
20372;DHT22;42924;37.564;-122.048;2022-08-25T15:56:37;27.00;99.90
20372;DHT22;42924;37.564;-122.048;2022-08-25T15:59:12;27.10;99.90
20372;DHT22;42924;37.564;-122.048;2022-08-25T16:01:45;27.10;99.90
20372;DHT22;42924;37.564;-122.048;2022-08-25T16:04:20;27.10;99.90
20372;DHT22;42924;37.564;-122.048;2022-08-25T16:06:52;27.10;99.90
20372;DHT22;42924;37.564;-122.048;2022-08-25T16:09:26;27.20;99.90
20372;DHT22;42924;37.564;-122.048;2022-08-25T16:12:00;27.20;99.90
20372;DHT22;42924;37.564;-122.048;2022-08-25T16:14:37;27.10;99.90
20372;DHT22;42924;37.564;-122.048;2022-08-25T16:17:09;27.10;99.90
20372;DHT22;42924;37.564;-122.048;2022-08-25T16:19:39;27.20;99.90
20372;DHT22;42924;37.564;-122.048;2022-08-25T16:22:11;27.30;99.90
20372;DHT22;42924;37.564;-122.048;2022-08-25T16:24:44;27.40;99.90
20372;DHT22;42924;37.564;-122.048;2022-08-25T16:27:16;27.30;99.90
20372;DHT22;42924;37.564;-122.048;2022-08-25T16:29:51;27.20;99.90
20372;DHT22;42924;37.564;-122.048;2022-08-25T16:32:24;27.30;99.90
20372;DHT22;42924;37.564;-122.048;2022-08-25T16:34:59;27.30;99.90
20372;DHT22;42924;37.564;-122.048;2022-08-25T16:37:32;27.20;99.90
20372;DHT22;42924;37.564;-122.048;2022-08-25T16:40:08;27.20;99.90
20372;DHT22;42924;37.564;-122.048;2022-08-25T16:42:41;27.20;99.90
20372;DHT22;42924;37.564;-122.048;2022-08-25T16:45:13;27.30;99.90
20372;DHT22;42924;37.564;-122.048;2022-08-25T16:47:50;27.50;99.90
20372;DHT22;42924;37.564;-122.048;2022-08-25T16:50:24;27.50;99.90
20372;DHT22;42924;37.564;-122.048;2022-08-25T16:52:56;27.50;99.90
20372;DHT22;42924;37.564;-122.048;2022-08-25T16:56:00;27.60;99.90
20372;DHT22;42924;37.564;-122.048;2022-08-25T16:58:31;27.60;99.90
20372;DHT22;42924;37.564;-122.048;2022-08-25T17:01:12;27.80;99.90
20372;DHT22;42924;37.564;-122.048;2022-08-25T17:03:42;27.80;99.90
20372;DHT22;42924;37.564;-122.048;2022-08-25T17:06:17;27.70;99.90
20372;DHT22;42924;37.564;-122.048;2022-08-25T17:08:49;27.80;99.90
20372;DHT22;42924;37.564;-122.048;2022-08-25T17:11:25;27.90;99.90
20372;DHT22;42924;37.564;-122.048;2022-08-25T17:13:59;28.20;99.90
20372;DHT22;42924;37.564;-122.048;2022-08-25T17:16:41;28.20;99.90
20372;DHT22;42924;37.564;-122.048;2022-08-25T17:19:14;28.20;99.90
20372;DHT22;42924;37.564;-122.048;2022-08-25T17:21:48;28.50;99.90
20372;DHT22;42924;37.564;-122.048;2022-08-25T17:24:23;28.60;99.90
20372;DHT22;42924;37.564;-122.048;2022-08-25T17:27:00;28.70;99.90